sensor_id;sensor_type;location;lat;lon;timestamp;P1;durP1;ratioP1;P2;durP2;ratioP2
7835;SDS011;3963;42.658;23.298;2022-08-07T00:02:25;7.00;;;6.30;;
7835;SDS011;3963;42.658;23.298;2022-08-07T00:04:53;8.40;;;5.93;;
7835;SDS011;3963;42.658;23.298;2022-08-07T00:07:20;7.00;;;6.30;;
7835;SDS011;3963;42.658;23.298;2022-08-07T00:09:47;8.20;;;5.93;;
7835;SDS011;3963;42.658;23.298;2022-08-07T00:12:15;6.83;;;5.90;;
7835;SDS011;3963;42.658;23.298;2022-08-07T00:14:42;7.10;;;6.40;;
7835;SDS011;3963;42.658;23.298;2022-08-07T00:17:08;7.20;;;6.10;;
7835;SDS011;3963;42.658;23.298;2022-08-07T00:19:35;8.73;;;6.87;;
7835;SDS011;3963;42.658;23.298;2022-08-07T00:22:04;7.67;;;6.30;;
7835;SDS011;3963;42.658;23.298;2022-08-07T00:24:31;7.20;;;5.90;;
7835;SDS011;3963;42.658;23.298;2022-08-07T00:26:57;8.57;;;6.20;;
7835;SDS011;3963;42.658;23.298;2022-08-07T00:29:24;6.53;;;5.80;;
7835;SDS011;3963;42.658;23.298;2022-08-07T00:31:53;8.00;;;5.83;;
7835;SDS011;3963;42.658;23.298;2022-08-07T00:34:23;7.77;;;6.07;;
7835;SDS011;3963;42.658;23.298;2022-08-07T00:36:50;9.57;;;6.07;;
7835;SDS011;3963;42.658;23.298;2022-08-07T00:39:19;6.70;;;6.00;;
7835;SDS011;3963;42.658;23.298;2022-08-07T00:41:49;7.47;;;6.30;;
7835;SDS011;3963;42.658;23.298;2022-08-07T00:44:16;7.03;;;6.13;;
7835;SDS011;3963;42.658;23.298;2022-08-07T00:46:43;6.87;;;6.17;;
7835;SDS011;3963;42.658;23.298;2022-08-07T00:49:10;8.13;;;5.83;;
7835;SDS011;3963;42.658;23.298;2022-08-07T00:51:38;6.90;;;5.93;;
7835;SDS011;3963;42.658;23.298;2022-08-07T00:54:05;11.10;;;5.80;;
7835;SDS011;3963;42.658;23.298;2022-08-07T00:56:34;7.30;;;6.13;;
7835;SDS011;3963;42.658;23.298;2022-08-07T00:59:02;11.07;;;7.83;;
7835;SDS011;3963;42.658;23.298;2022-08-07T01:01:30;7.23;;;5.77;;
7835;SDS011;3963;42.658;23.298;2022-08-07T01:03:58;7.93;;;6.67;;
7835;SDS011;3963;42.658;23.298;2022-08-07T01:06:25;8.10;;;6.23;;
7835;SDS011;3963;42.658;23.298;2022-08-07T01:08:53;9.57;;;5.80;;
7835;SDS011;3963;42.658;23.298;2022-08-07T01:11:20;7.53;;;6.20;;
7835;SDS011;3963;42.658;23.298;2022-08-07T01:13:49;7.53;;;6.70;;
7835;SDS011;3963;42.658;23.298;2022-08-07T01:16:16;9.93;;;6.57;;
7835;SDS011;3963;42.658;23.298;2022-08-07T01:18:43;6.80;;;5.87;;
7835;SDS011;3963;42.658;23.298;2022-08-07T01:21:12;7.93;;;6.57;;
7835;SDS011;3963;42.658;23.298;2022-08-07T01:23:40;9.80;;;6.60;;
7835;SDS011;3963;42.658;23.298;2022-08-07T01:26:10;8.50;;;6.60;;
7835;SDS011;3963;42.658;23.298;2022-08-07T01:28:38;9.23;;;6.30;;
7835;SDS011;3963;42.658;23.298;2022-08-07T01:31:06;7.87;;;6.13;;
7835;SDS011;3963;42.658;23.298;2022-08-07T01:33:34;7.10;;;6.07;;
7835;SDS011;3963;42.658;23.298;2022-08-07T01:36:01;8.43;;;6.50;;
7835;SDS011;3963;42.658;23.298;2022-08-07T01:38:30;8.27;;;5.90;;
7835;SDS011;3963;42.658;23.298;2022-08-07T01:40:57;10.80;;;7.00;;
7835;SDS011;3963;42.658;23.298;2022-08-07T01:43:26;6.97;;;6.00;;
7835;SDS011;3963;42.658;23.298;2022-08-07T01:45:54;6.80;;;6.13;;
7835;SDS011;3963;42.658;23.298;2022-08-07T01:48:23;8.77;;;6.43;;
7835;SDS011;3963;42.658;23.298;2022-08-07T01:50:53;6.43;;;5.83;;
7835;SDS011;3963;42.658;23.298;2022-08-07T01:53:24;10.47;;;6.23;;
7835;SDS011;3963;42.658;23.298;2022-08-07T01:55:57;7.90;;;6.47;;
7835;SDS011;3963;42.658;23.298;2022-08-07T01:58:30;7.03;;;6.33;;
7835;SDS011;3963;42.658;23.298;2022-08-07T02:01:01;7.53;;;6.57;;
7835;SDS011;3963;42.658;23.298;2022-08-07T02:03:30;7.97;;;7.17;;
7835;SDS011;3963;42.658;23.298;2022-08-07T02:06:00;12.40;;;7.07;;
7835;SDS011;3963;42.658;23.298;2022-08-07T02:08:31;9.90;;;7.70;;
7835;SDS011;3963;42.658;23.298;2022-08-07T02:11:03;15.87;;;8.30;;
7835;SDS011;3963;42.658;23.298;2022-08-07T02:13:31;10.63;;;7.93;;
7835;SDS011;3963;42.658;23.298;2022-08-07T02:16:00;11.23;;;7.87;;
7835;SDS011;3963;42.658;23.298;2022-08-07T02:18:29;13.03;;;7.80;;
7835;SDS011;3963;42.658;23.298;2022-08-07T02:20:58;11.50;;;8.23;;
7835;SDS011;3963;42.658;23.298;2022-08-07T02:23:28;11.80;;;8.57;;
7835;SDS011;3963;42.658;23.298;2022-08-07T02:25:57;12.97;;;8.97;;
7835;SDS011;3963;42.658;23.298;2022-08-07T02:28:27;9.90;;;8.50;;
7835;SDS011;3963;42.658;23.298;2022-08-07T02:30:56;9.30;;;8.33;;
7835;SDS011;3963;42.658;23.298;2022-08-07T02:33:24;12.70;;;8.60;;
7835;SDS011;3963;42.658;23.298;2022-08-07T02:35:53;11.63;;;7.80;;
7835;SDS011;3963;42.658;23.298;2022-08-07T02:38:22;9.37;;;7.83;;
7835;SDS011;3963;42.658;23.298;2022-08-07T02:40:53;9.33;;;7.20;;
7835;SDS011;3963;42.658;23.298;2022-08-07T02:43:22;7.10;;;6.40;;
7835;SDS011;3963;42.658;23.298;2022-08-07T02:45:53;9.90;;;7.23;;
7835;SDS011;3963;42.658;23.298;2022-08-07T02:48:22;8.80;;;7.53;;
7835;SDS011;3963;42.658;23.298;2022-08-07T02:50:49;8.27;;;7.00;;
7835;SDS011;3963;42.658;23.298;2022-08-07T02:53:20;10.53;;;6.90;;
7835;SDS011;3963;42.658;23.298;2022-08-07T02:55:49;9.23;;;7.80;;
7835;SDS011;3963;42.658;23.298;2022-08-07T02:58:19;8.70;;;7.63;;
7835;SDS011;3963;42.658;23.298;2022-08-07T03:00:48;9.57;;;8.00;;
7835;SDS011;3963;42.658;23.298;2022-08-07T03:03:18;8.17;;;7.27;;
7835;SDS011;3963;42.658;23.298;2022-08-07T03:05:46;9.63;;;7.57;;
7835;SDS011;3963;42.658;23.298;2022-08-07T03:08:16;11.63;;;7.53;;
7835;SDS011;3963;42.658;23.298;2022-08-07T03:10:43;9.13;;;7.03;;
7835;SDS011;3963;42.658;23.298;2022-08-07T03:13:12;8.10;;;7.20;;
7835;SDS011;3963;42.658;23.298;2022-08-07T03:15:40;7.87;;;6.60;;
7835;SDS011;3963;42.658;23.298;2022-08-07T03:18:08;10.00;;;7.80;;
7835;SDS011;3963;42.658;23.298;2022-08-07T03:20:37;9.97;;;7.00;;
7835;SDS011;3963;42.658;23.298;2022-08-07T03:23:04;9.53;;;7.80;;
7835;SDS011;3963;42.658;23.298;2022-08-07T03:25:34;10.07;;;7.90;;
7835;SDS011;3963;42.658;23.298;2022-08-07T03:28:04;9.03;;;7.63;;
7835;SDS011;3963;42.658;23.298;2022-08-07T03:30:33;11.53;;;8.07;;
7835;SDS011;3963;42.658;23.298;2022-08-07T03:33:00;10.23;;;7.97;;
7835;SDS011;3963;42.658;23.298;2022-08-07T03:35:28;9.47;;;8.10;;
7835;SDS011;3963;42.658;23.298;2022-08-07T03:37:58;8.70;;;7.53;;
7835;SDS011;3963;42.658;23.298;2022-08-07T03:40:29;12.20;;;8.10;;
7835;SDS011;3963;42.658;23.298;2022-08-07T03:42:56;10.27;;;8.17;;
7835;SDS011;3963;42.658;23.298;2022-08-07T03:45:24;11.40;;;8.93;;
7835;SDS011;3963;42.658;23.298;2022-08-07T03:47:53;10.13;;;7.97;;
7835;SDS011;3963;42.658;23.298;2022-08-07T03:50:21;9.83;;;8.10;;
7835;SDS011;3963;42.658;23.298;2022-08-07T03:52:50;10.93;;;8.60;;
7835;SDS011;3963;42.658;23.298;2022-08-07T03:55:19;10.33;;;8.80;;
7835;SDS011;3963;42.658;23.298;2022-08-07T03:57:46;11.53;;;8.47;;
7835;SDS011;3963;42.658;23.298;2022-08-07T04:00:15;10.50;;;8.77;;
7835;SDS011;3963;42.658;23.298;2022-08-07T04:02:43;10.00;;;9.00;;
7835;SDS011;3963;42.658;23.298;2022-08-07T04:05:10;10.07;;;8.13;;
7835;SDS011;3963;42.658;23.298;2022-08-07T04:07:42;10.63;;;8.90;;
7835;SDS011;3963;42.658;23.298;2022-08-07T04:10:10;9.83;;;8.80;;
7835;SDS011;3963;42.658;23.298;2022-08-07T04:12:38;9.83;;;8.50;;
7835;SDS011;3963;42.658;23.298;2022-08-07T04:15:06;11.27;;;8.43;;
7835;SDS011;3963;42.658;23.298;2022-08-07T04:17:35;12.40;;;9.40;;
7835;SDS011;3963;42.658;23.298;2022-08-07T04:20:02;11.10;;;9.07;;
7835;SDS011;3963;42.658;23.298;2022-08-07T04:22:30;13.23;;;9.30;;
7835;SDS011;3963;42.658;23.298;2022-08-07T04:24:58;10.03;;;8.93;;
7835;SDS011;3963;42.658;23.298;2022-08-07T04:27:25;11.00;;;8.53;;
7835;SDS011;3963;42.658;23.298;2022-08-07T04:29:54;12.73;;;8.60;;
7835;SDS011;3963;42.658;23.298;2022-08-07T04:32:21;9.10;;;8.20;;
7835;SDS011;3963;42.658;23.298;2022-08-07T04:34:48;12.30;;;9.03;;
7835;SDS011;3963;42.658;23.298;2022-08-07T04:37:16;9.07;;;7.93;;
7835;SDS011;3963;42.658;23.298;2022-08-07T04:39:43;11.20;;;7.73;;
7835;SDS011;3963;42.658;23.298;2022-08-07T04:42:10;10.07;;;8.53;;
7835;SDS011;3963;42.658;23.298;2022-08-07T04:44:37;11.77;;;8.77;;
7835;SDS011;3963;42.658;23.298;2022-08-07T04:47:08;10.57;;;8.80;;
7835;SDS011;3963;42.658;23.298;2022-08-07T04:49:41;10.37;;;8.97;;
7835;SDS011;3963;42.658;23.298;2022-08-07T04:52:11;11.20;;;8.87;;
7835;SDS011;3963;42.658;23.298;2022-08-07T04:54:50;9.87;;;8.63;;
7835;SDS011;3963;42.658;23.298;2022-08-07T04:57:27;9.63;;;8.73;;
7835;SDS011;3963;42.658;23.298;2022-08-07T04:59:58;10.50;;;9.03;;
7835;SDS011;3963;42.658;23.298;2022-08-07T05:02:31;10.77;;;8.80;;
7835;SDS011;3963;42.658;23.298;2022-08-07T05:05:05;10.80;;;8.80;;
7835;SDS011;3963;42.658;23.298;2022-08-07T05:07:41;11.30;;;8.80;;
7835;SDS011;3963;42.658;23.298;2022-08-07T05:10:22;10.40;;;7.60;;
7835;SDS011;3963;42.658;23.298;2022-08-07T05:12:55;10.80;;;8.50;;
7835;SDS011;3963;42.658;23.298;2022-08-07T05:15:25;12.57;;;8.87;;
7835;SDS011;3963;42.658;23.298;2022-08-07T05:18:00;12.20;;;8.83;;
7835;SDS011;3963;42.658;23.298;2022-08-07T05:20:34;10.47;;;8.93;;
7835;SDS011;3963;42.658;23.298;2022-08-07T05:23:06;14.33;;;8.47;;
7835;SDS011;3963;42.658;23.298;2022-08-07T05:25:36;9.53;;;8.53;;
7835;SDS011;3963;42.658;23.298;2022-08-07T05:28:07;10.20;;;8.70;;
7835;SDS011;3963;42.658;23.298;2022-08-07T05:30:36;9.57;;;8.10;;
7835;SDS011;3963;42.658;23.298;2022-08-07T05:33:05;10.73;;;8.50;;
7835;SDS011;3963;42.658;23.298;2022-08-07T05:35:34;9.50;;;8.50;;
7835;SDS011;3963;42.658;23.298;2022-08-07T05:38:03;10.20;;;7.50;;
7835;SDS011;3963;42.658;23.298;2022-08-07T05:40:31;11.10;;;8.20;;
7835;SDS011;3963;42.658;23.298;2022-08-07T05:43:01;11.60;;;8.97;;
7835;SDS011;3963;42.658;23.298;2022-08-07T05:45:28;10.70;;;8.70;;
7835;SDS011;3963;42.658;23.298;2022-08-07T05:47:57;12.03;;;8.60;;
7835;SDS011;3963;42.658;23.298;2022-08-07T05:50:26;10.37;;;9.07;;
7835;SDS011;3963;42.658;23.298;2022-08-07T05:52:53;9.97;;;8.80;;
7835;SDS011;3963;42.658;23.298;2022-08-07T05:55:20;8.80;;;7.90;;
7835;SDS011;3963;42.658;23.298;2022-08-07T05:57:47;11.43;;;8.47;;
7835;SDS011;3963;42.658;23.298;2022-08-07T06:00:16;10.93;;;9.10;;
7835;SDS011;3963;42.658;23.298;2022-08-07T06:02:44;11.23;;;8.73;;
7835;SDS011;3963;42.658;23.298;2022-08-07T06:05:14;11.07;;;8.60;;
7835;SDS011;3963;42.658;23.298;2022-08-07T06:07:43;8.93;;;7.97;;
7835;SDS011;3963;42.658;23.298;2022-08-07T06:10:10;9.10;;;8.00;;
7835;SDS011;3963;42.658;23.298;2022-08-07T06:12:37;11.07;;;8.63;;
7835;SDS011;3963;42.658;23.298;2022-08-07T06:15:05;10.17;;;8.30;;
7835;SDS011;3963;42.658;23.298;2022-08-07T06:17:34;10.17;;;7.40;;
7835;SDS011;3963;42.658;23.298;2022-08-07T06:20:02;8.97;;;8.07;;
7835;SDS011;3963;42.658;23.298;2022-08-07T06:22:30;9.17;;;7.90;;
7835;SDS011;3963;42.658;23.298;2022-08-07T06:25:00;8.73;;;7.70;;
7835;SDS011;3963;42.658;23.298;2022-08-07T06:27:27;9.90;;;7.60;;
7835;SDS011;3963;42.658;23.298;2022-08-07T06:29:54;8.50;;;7.13;;
7835;SDS011;3963;42.658;23.298;2022-08-07T06:32:20;8.60;;;7.63;;
7835;SDS011;3963;42.658;23.298;2022-08-07T06:34:48;7.80;;;7.00;;
7835;SDS011;3963;42.658;23.298;2022-08-07T06:37:15;11.50;;;6.47;;
7835;SDS011;3963;42.658;23.298;2022-08-07T06:39:42;9.00;;;6.73;;
7835;SDS011;3963;42.658;23.298;2022-08-07T06:42:13;6.60;;;5.90;;
7835;SDS011;3963;42.658;23.298;2022-08-07T06:44:43;7.43;;;6.67;;
7835;SDS011;3963;42.658;23.298;2022-08-07T06:47:12;7.97;;;6.60;;
7835;SDS011;3963;42.658;23.298;2022-08-07T06:49:39;8.17;;;6.50;;
7835;SDS011;3963;42.658;23.298;2022-08-07T06:52:07;9.13;;;6.97;;
7835;SDS011;3963;42.658;23.298;2022-08-07T06:54:36;7.90;;;7.10;;
7835;SDS011;3963;42.658;23.298;2022-08-07T06:57:04;9.43;;;7.00;;
7835;SDS011;3963;42.658;23.298;2022-08-07T06:59:36;9.27;;;7.30;;
7835;SDS011;3963;42.658;23.298;2022-08-07T07:02:06;8.43;;;7.40;;
7835;SDS011;3963;42.658;23.298;2022-08-07T07:04:39;8.60;;;7.63;;
7835;SDS011;3963;42.658;23.298;2022-08-07T07:07:06;9.30;;;7.63;;
7835;SDS011;3963;42.658;23.298;2022-08-07T07:09:33;8.80;;;7.40;;
7835;SDS011;3963;42.658;23.298;2022-08-07T07:12:01;10.73;;;7.43;;
7835;SDS011;3963;42.658;23.298;2022-08-07T07:14:44;8.63;;;7.13;;
7835;SDS011;3963;42.658;23.298;2022-08-07T07:17:17;9.17;;;7.17;;
7835;SDS011;3963;42.658;23.298;2022-08-07T07:19:51;8.47;;;7.53;;
7835;SDS011;3963;42.658;23.298;2022-08-07T07:22:21;8.07;;;7.13;;
7835;SDS011;3963;42.658;23.298;2022-08-07T07:24:50;9.10;;;7.17;;
7835;SDS011;3963;42.658;23.298;2022-08-07T07:27:17;7.43;;;6.43;;
7835;SDS011;3963;42.658;23.298;2022-08-07T07:29:48;8.03;;;6.77;;
7835;SDS011;3963;42.658;23.298;2022-08-07T07:32:19;9.43;;;7.10;;
7835;SDS011;3963;42.658;23.298;2022-08-07T07:34:50;9.48;;;7.63;;
7835;SDS011;3963;42.658;23.298;2022-08-07T07:37:21;8.52;;;7.60;;
7835;SDS011;3963;42.658;23.298;2022-08-07T07:39:50;8.60;;;7.30;;
7835;SDS011;3963;42.658;23.298;2022-08-07T07:42:22;8.70;;;7.20;;
7835;SDS011;3963;42.658;23.298;2022-08-07T07:44:53;9.15;;;7.45;;
7835;SDS011;3963;42.658;23.298;2022-08-07T07:47:20;9.82;;;8.27;;
7835;SDS011;3963;42.658;23.298;2022-08-07T07:49:50;8.48;;;6.95;;
7835;SDS011;3963;42.658;23.298;2022-08-07T07:52:19;8.07;;;7.15;;
7835;SDS011;3963;42.658;23.298;2022-08-07T07:54:47;9.75;;;8.15;;
7835;SDS011;3963;42.658;23.298;2022-08-07T07:57:15;13.10;;;9.32;;
7835;SDS011;3963;42.658;23.298;2022-08-07T07:59:45;9.80;;;8.82;;
7835;SDS011;3963;42.658;23.298;2022-08-07T08:02:16;12.38;;;9.30;;
7835;SDS011;3963;42.658;23.298;2022-08-07T08:04:45;11.70;;;10.38;;
7835;SDS011;3963;42.658;23.298;2022-08-07T08:07:13;13.90;;;11.05;;
7835;SDS011;3963;42.658;23.298;2022-08-07T08:09:42;11.70;;;10.00;;
7835;SDS011;3963;42.658;23.298;2022-08-07T08:12:14;12.68;;;11.38;;
7835;SDS011;3963;42.658;23.298;2022-08-07T08:14:42;11.65;;;9.02;;
7835;SDS011;3963;42.658;23.298;2022-08-07T08:17:09;15.20;;;9.57;;
7835;SDS011;3963;42.658;23.298;2022-08-07T08:19:40;11.70;;;10.50;;
7835;SDS011;3963;42.658;23.298;2022-08-07T08:22:09;10.80;;;9.70;;
7835;SDS011;3963;42.658;23.298;2022-08-07T08:24:54;10.13;;;9.00;;
7835;SDS011;3963;42.658;23.298;2022-08-07T08:27:40;8.88;;;7.88;;
7835;SDS011;3963;42.658;23.298;2022-08-07T08:30:09;8.90;;;7.93;;
7835;SDS011;3963;42.658;23.298;2022-08-07T08:32:39;10.10;;;7.85;;
7835;SDS011;3963;42.658;23.298;2022-08-07T08:35:11;8.07;;;7.20;;
7835;SDS011;3963;42.658;23.298;2022-08-07T08:37:40;7.88;;;6.80;;
7835;SDS011;3963;42.658;23.298;2022-08-07T08:40:12;8.13;;;6.72;;
7835;SDS011;3963;42.658;23.298;2022-08-07T08:42:45;8.38;;;7.47;;
7835;SDS011;3963;42.658;23.298;2022-08-07T08:45:18;9.00;;;7.20;;
7835;SDS011;3963;42.658;23.298;2022-08-07T08:47:54;7.78;;;6.93;;
7835;SDS011;3963;42.658;23.298;2022-08-07T08:50:31;10.55;;;7.10;;
7835;SDS011;3963;42.658;23.298;2022-08-07T08:53:04;7.47;;;6.68;;
7835;SDS011;3963;42.658;23.298;2022-08-07T08:55:39;11.13;;;7.13;;
7835;SDS011;3963;42.658;23.298;2022-08-07T08:58:13;8.05;;;6.82;;
7835;SDS011;3963;42.658;23.298;2022-08-07T09:00:50;9.77;;;7.50;;
7835;SDS011;3963;42.658;23.298;2022-08-07T09:03:22;7.85;;;7.05;;
7835;SDS011;3963;42.658;23.298;2022-08-07T09:05:54;7.85;;;7.05;;
7835;SDS011;3963;42.658;23.298;2022-08-07T09:08:29;9.55;;;7.47;;
7835;SDS011;3963;42.658;23.298;2022-08-07T09:11:14;9.98;;;6.68;;
7835;SDS011;3963;42.658;23.298;2022-08-07T09:13:47;8.18;;;6.65;;
7835;SDS011;3963;42.658;23.298;2022-08-07T09:16:32;7.90;;;7.05;;
7835;SDS011;3963;42.658;23.298;2022-08-07T09:19:21;8.13;;;7.13;;
7835;SDS011;3963;42.658;23.298;2022-08-07T09:22:01;8.32;;;6.93;;
7835;SDS011;3963;42.658;23.298;2022-08-07T09:24:40;8.27;;;6.82;;
7835;SDS011;3963;42.658;23.298;2022-08-07T09:27:20;8.02;;;6.97;;
7835;SDS011;3963;42.658;23.298;2022-08-07T09:29:55;7.35;;;6.65;;
7835;SDS011;3963;42.658;23.298;2022-08-07T09:32:30;10.27;;;6.88;;
7835;SDS011;3963;42.658;23.298;2022-08-07T09:35:09;7.43;;;6.63;;
7835;SDS011;3963;42.658;23.298;2022-08-07T09:37:50;6.95;;;6.25;;
7835;SDS011;3963;42.658;23.298;2022-08-07T09:40:33;7.18;;;6.47;;
7835;SDS011;3963;42.658;23.298;2022-08-07T09:43:11;6.50;;;5.88;;
7835;SDS011;3963;42.658;23.298;2022-08-07T09:45:51;7.47;;;6.68;;
7835;SDS011;3963;42.658;23.298;2022-08-07T09:48:33;6.00;;;5.32;;
7835;SDS011;3963;42.658;23.298;2022-08-07T09:51:11;6.43;;;5.80;;
7835;SDS011;3963;42.658;23.298;2022-08-07T09:53:54;7.05;;;6.05;;
7835;SDS011;3963;42.658;23.298;2022-08-07T09:56:29;7.22;;;6.22;;
7835;SDS011;3963;42.658;23.298;2022-08-07T09:59:21;6.80;;;5.97;;
7835;SDS011;3963;42.658;23.298;2022-08-07T10:02:06;6.95;;;6.20;;
7835;SDS011;3963;42.658;23.298;2022-08-07T10:04:50;6.78;;;6.18;;
7835;SDS011;3963;42.658;23.298;2022-08-07T10:07:39;7.68;;;6.22;;
7835;SDS011;3963;42.658;23.298;2022-08-07T10:10:25;10.00;;;6.15;;
7835;SDS011;3963;42.658;23.298;2022-08-07T10:13:21;6.68;;;5.97;;
7835;SDS011;3963;42.658;23.298;2022-08-07T10:16:08;6.53;;;5.85;;
7835;SDS011;3963;42.658;23.298;2022-08-07T10:19:04;7.68;;;5.60;;
7835;SDS011;3963;42.658;23.298;2022-08-07T10:21:48;6.28;;;5.68;;
7835;SDS011;3963;42.658;23.298;2022-08-07T10:24:37;7.25;;;6.05;;
7835;SDS011;3963;42.658;23.298;2022-08-07T10:27:24;6.55;;;5.95;;
7835;SDS011;3963;42.658;23.298;2022-08-07T10:30:05;7.20;;;6.45;;
7835;SDS011;3963;42.658;23.298;2022-08-07T10:35:40;6.50;;;5.85;;
7835;SDS011;3963;42.658;23.298;2022-08-07T10:38:22;6.75;;;5.47;;
7835;SDS011;3963;42.658;23.298;2022-08-07T10:41:04;6.63;;;6.00;;
7835;SDS011;3963;42.658;23.298;2022-08-07T10:43:41;7.05;;;6.35;;
7835;SDS011;3963;42.658;23.298;2022-08-07T10:46:14;7.05;;;6.30;;
7835;SDS011;3963;42.658;23.298;2022-08-07T10:48:48;10.57;;;7.18;;
7835;SDS011;3963;42.658;23.298;2022-08-07T10:51:27;8.65;;;6.47;;
7835;SDS011;3963;42.658;23.298;2022-08-07T10:54:02;6.18;;;5.45;;
7835;SDS011;3963;42.658;23.298;2022-08-07T10:56:39;8.27;;;6.78;;
7835;SDS011;3963;42.658;23.298;2022-08-07T10:59:18;7.78;;;6.97;;
7835;SDS011;3963;42.658;23.298;2022-08-07T11:01:52;8.48;;;7.15;;
7835;SDS011;3963;42.658;23.298;2022-08-07T11:04:29;10.07;;;7.15;;
7835;SDS011;3963;42.658;23.298;2022-08-07T11:07:12;8.80;;;6.55;;
7835;SDS011;3963;42.658;23.298;2022-08-07T11:09:48;9.55;;;6.90;;
7835;SDS011;3963;42.658;23.298;2022-08-07T11:12:22;8.75;;;7.38;;
7835;SDS011;3963;42.658;23.298;2022-08-07T11:14:57;9.20;;;6.78;;
7835;SDS011;3963;42.658;23.298;2022-08-07T11:17:29;6.85;;;6.15;;
7835;SDS011;3963;42.658;23.298;2022-08-07T11:20:00;8.43;;;7.00;;
7835;SDS011;3963;42.658;23.298;2022-08-07T11:22:32;8.23;;;7.43;;
7835;SDS011;3963;42.658;23.298;2022-08-07T11:25:02;9.00;;;7.25;;
7835;SDS011;3963;42.658;23.298;2022-08-07T11:27:39;9.48;;;7.35;;
7835;SDS011;3963;42.658;23.298;2022-08-07T11:30:16;8.57;;;6.15;;
7835;SDS011;3963;42.658;23.298;2022-08-07T11:32:50;9.25;;;6.82;;
7835;SDS011;3963;42.658;23.298;2022-08-07T11:35:24;8.48;;;6.18;;
7835;SDS011;3963;42.658;23.298;2022-08-07T11:37:56;9.50;;;5.72;;
7835;SDS011;3963;42.658;23.298;2022-08-07T11:40:32;7.63;;;6.57;;
7835;SDS011;3963;42.658;23.298;2022-08-07T11:43:08;8.40;;;6.60;;
7835;SDS011;3963;42.658;23.298;2022-08-07T11:45:52;7.82;;;6.55;;
7835;SDS011;3963;42.658;23.298;2022-08-07T11:48:42;8.27;;;6.90;;
7835;SDS011;3963;42.658;23.298;2022-08-07T11:51:41;9.00;;;7.43;;
7835;SDS011;3963;42.658;23.298;2022-08-07T11:54:32;10.77;;;8.40;;
7835;SDS011;3963;42.658;23.298;2022-08-07T11:57:15;8.15;;;7.30;;
7835;SDS011;3963;42.658;23.298;2022-08-07T12:05:47;8.02;;;7.20;;
7835;SDS011;3963;42.658;23.298;2022-08-07T12:08:31;8.57;;;7.68;;
7835;SDS011;3963;42.658;23.298;2022-08-07T12:11:05;8.13;;;7.32;;
7835;SDS011;3963;42.658;23.298;2022-08-07T12:13:37;8.32;;;7.22;;
7835;SDS011;3963;42.658;23.298;2022-08-07T12:16:10;8.77;;;7.70;;
7835;SDS011;3963;42.658;23.298;2022-08-07T12:18:43;8.00;;;7.20;;
7835;SDS011;3963;42.658;23.298;2022-08-07T12:21:23;10.88;;;7.47;;
7835;SDS011;3963;42.658;23.298;2022-08-07T12:23:56;8.43;;;6.93;;
7835;SDS011;3963;42.658;23.298;2022-08-07T12:26:30;7.80;;;7.05;;
7835;SDS011;3963;42.658;23.298;2022-08-07T12:29:06;8.27;;;7.13;;
7835;SDS011;3963;42.658;23.298;2022-08-07T12:31:38;7.70;;;6.90;;
7835;SDS011;3963;42.658;23.298;2022-08-07T12:34:09;7.72;;;6.93;;
7835;SDS011;3963;42.658;23.298;2022-08-07T12:36:39;8.45;;;6.78;;
7835;SDS011;3963;42.658;23.298;2022-08-07T12:39:09;7.43;;;6.63;;
7835;SDS011;3963;42.658;23.298;2022-08-07T12:41:37;9.00;;;6.90;;
7835;SDS011;3963;42.658;23.298;2022-08-07T12:44:07;7.90;;;7.10;;
7835;SDS011;3963;42.658;23.298;2022-08-07T12:46:42;7.60;;;6.78;;
7835;SDS011;3963;42.658;23.298;2022-08-07T12:49:23;7.82;;;6.95;;
7835;SDS011;3963;42.658;23.298;2022-08-07T12:52:03;6.85;;;6.22;;
7835;SDS011;3963;42.658;23.298;2022-08-07T12:54:34;6.82;;;5.93;;
7835;SDS011;3963;42.658;23.298;2022-08-07T12:57:08;9.18;;;5.68;;
7835;SDS011;3963;42.658;23.298;2022-08-07T12:59:38;9.05;;;6.07;;
7835;SDS011;3963;42.658;23.298;2022-08-07T13:05:09;6.75;;;6.13;;
7835;SDS011;3963;42.658;23.298;2022-08-07T13:07:54;7.13;;;6.30;;
7835;SDS011;3963;42.658;23.298;2022-08-07T13:10:37;6.90;;;6.20;;
7835;SDS011;3963;42.658;23.298;2022-08-07T13:13:09;8.23;;;6.63;;
7835;SDS011;3963;42.658;23.298;2022-08-07T13:15:49;7.93;;;6.50;;
7835;SDS011;3963;42.658;23.298;2022-08-07T13:18:23;7.28;;;6.53;;
7835;SDS011;3963;42.658;23.298;2022-08-07T13:21:01;7.68;;;6.78;;
7835;SDS011;3963;42.658;23.298;2022-08-07T13:23:37;6.10;;;5.53;;
7835;SDS011;3963;42.658;23.298;2022-08-07T13:26:10;8.23;;;6.53;;
7835;SDS011;3963;42.658;23.298;2022-08-07T13:28:43;6.13;;;5.53;;
7835;SDS011;3963;42.658;23.298;2022-08-07T13:31:15;7.13;;;5.97;;
7835;SDS011;3963;42.658;23.298;2022-08-07T13:33:47;7.10;;;6.40;;
7835;SDS011;3963;42.658;23.298;2022-08-07T13:36:18;8.05;;;6.20;;
7835;SDS011;3963;42.658;23.298;2022-08-07T13:38:52;6.75;;;6.07;;
7835;SDS011;3963;42.658;23.298;2022-08-07T13:41:29;8.88;;;6.50;;
7835;SDS011;3963;42.658;23.298;2022-08-07T13:44:04;7.03;;;5.95;;
7835;SDS011;3963;42.658;23.298;2022-08-07T13:46:34;7.50;;;6.00;;
7835;SDS011;3963;42.658;23.298;2022-08-07T13:49:04;10.18;;;6.60;;
7835;SDS011;3963;42.658;23.298;2022-08-07T13:51:32;8.35;;;7.45;;
7835;SDS011;3963;42.658;23.298;2022-08-07T13:54:04;8.38;;;6.78;;
7835;SDS011;3963;42.658;23.298;2022-08-07T13:56:35;6.85;;;6.18;;
7835;SDS011;3963;42.658;23.298;2022-08-07T13:59:05;8.57;;;6.85;;
7835;SDS011;3963;42.658;23.298;2022-08-07T14:01:35;7.75;;;6.55;;
7835;SDS011;3963;42.658;23.298;2022-08-07T14:04:08;6.68;;;6.07;;
7835;SDS011;3963;42.658;23.298;2022-08-07T14:06:38;7.20;;;6.00;;
7835;SDS011;3963;42.658;23.298;2022-08-07T14:09:09;8.13;;;5.90;;
7835;SDS011;3963;42.658;23.298;2022-08-07T14:11:44;6.18;;;5.57;;
7835;SDS011;3963;42.658;23.298;2022-08-07T14:14:14;7.90;;;7.03;;
7835;SDS011;3963;42.658;23.298;2022-08-07T14:16:44;6.78;;;6.07;;
7835;SDS011;3963;42.658;23.298;2022-08-07T14:19:14;6.68;;;5.82;;
7835;SDS011;3963;42.658;23.298;2022-08-07T14:21:44;8.38;;;5.85;;
7835;SDS011;3963;42.658;23.298;2022-08-07T14:24:27;8.32;;;5.93;;
7835;SDS011;3963;42.658;23.298;2022-08-07T14:27:00;11.27;;;6.43;;
7835;SDS011;3963;42.658;23.298;2022-08-07T14:29:31;9.50;;;7.38;;
7835;SDS011;3963;42.658;23.298;2022-08-07T14:32:03;7.22;;;6.03;;
7835;SDS011;3963;42.658;23.298;2022-08-07T14:34:33;9.25;;;5.85;;
7835;SDS011;3963;42.658;23.298;2022-08-07T14:37:06;9.82;;;6.20;;
7835;SDS011;3963;42.658;23.298;2022-08-07T14:39:38;7.38;;;6.68;;
7835;SDS011;3963;42.658;23.298;2022-08-07T14:42:07;7.60;;;6.40;;
7835;SDS011;3963;42.658;23.298;2022-08-07T14:44:36;8.15;;;6.15;;
7835;SDS011;3963;42.658;23.298;2022-08-07T14:47:08;7.20;;;6.43;;
7835;SDS011;3963;42.658;23.298;2022-08-07T14:49:37;8.67;;;6.87;;
7835;SDS011;3963;42.658;23.298;2022-08-07T14:52:07;7.77;;;6.60;;
7835;SDS011;3963;42.658;23.298;2022-08-07T14:54:38;10.63;;;7.17;;
7835;SDS011;3963;42.658;23.298;2022-08-07T14:57:08;9.47;;;7.03;;
7835;SDS011;3963;42.658;23.298;2022-08-07T14:59:38;10.68;;;7.18;;
7835;SDS011;3963;42.658;23.298;2022-08-07T15:02:08;8.63;;;7.00;;
7835;SDS011;3963;42.658;23.298;2022-08-07T15:04:38;10.60;;;8.27;;
7835;SDS011;3963;42.658;23.298;2022-08-07T15:07:06;9.77;;;7.77;;
7835;SDS011;3963;42.658;23.298;2022-08-07T15:09:38;8.35;;;7.03;;
7835;SDS011;3963;42.658;23.298;2022-08-07T15:12:08;9.50;;;7.57;;
7835;SDS011;3963;42.658;23.298;2022-08-07T15:14:40;7.55;;;6.53;;
7835;SDS011;3963;42.658;23.298;2022-08-07T15:17:15;8.37;;;6.57;;
7835;SDS011;3963;42.658;23.298;2022-08-07T15:19:47;7.65;;;6.25;;
7835;SDS011;3963;42.658;23.298;2022-08-07T15:22:17;7.40;;;6.10;;
7835;SDS011;3963;42.658;23.298;2022-08-07T15:24:48;9.05;;;6.43;;
7835;SDS011;3963;42.658;23.298;2022-08-07T15:27:18;8.63;;;6.85;;
7835;SDS011;3963;42.658;23.298;2022-08-07T15:29:49;8.57;;;7.25;;
7835;SDS011;3963;42.658;23.298;2022-08-07T15:32:18;8.93;;;7.03;;
7835;SDS011;3963;42.658;23.298;2022-08-07T15:34:47;10.15;;;7.05;;
7835;SDS011;3963;42.658;23.298;2022-08-07T15:37:17;9.35;;;7.45;;
7835;SDS011;3963;42.658;23.298;2022-08-07T15:39:49;8.00;;;6.63;;